Time,TemperatureF,DewpointF,PressureIn,WindDirection,WindDirectionDegrees,WindSpeedMPH,WindSpeedGustMPH,Humidity,HourlyPrecipIn,Conditions,Clouds,dailyrainin,SoftwareType,DateUTC
2013-01-12 00:05:00,29.6,28.3,30.29,North,353,0.0,0.0,95,0.00,,,0.00,Wunderground v.1.15,2013-01-12 08:05:00,
2013-01-12 00:15:00,29.6,28.3,30.29,North,353,0.0,0.0,95,0.00,,,0.00,Wunderground v.1.15,2013-01-12 08:15:00,
2013-01-12 00:25:00,29.6,28.3,30.30,North,353,0.0,0.0,95,0.00,,,0.00,Wunderground v.1.15,2013-01-12 08:25:00,
2013-01-12 00:35:00,29.5,28.2,30.30,North,351,0.0,1.0,95,0.00,,,0.00,Wunderground v.1.15,2013-01-12 08:35:00,
2013-01-12 00:45:00,29.5,28.2,30.30,NNW,345,0.0,1.0,95,0.00,,,0.00,Wunderground v.1.15,2013-01-12 08:45:00,
2013-01-12 00:55:00,29.4,28.1,30.30,NNW,345,0.0,1.0,95,0.00,,,0.00,Wunderground v.1.15,2013-01-12 08:55:00,
2013-01-12 01:05:00,29.2,27.9,30.30,NNW,345,0.0,0.0,95,0.00,,,0.00,Wunderground v.1.15,2013-01-12 09:05:00,
2013-01-12 01:15:00,29.1,27.8,30.30,NNW,345,0.0,0.0,95,0.00,,,0.00,Wunderground v.1.15,2013-01-12 09:15:00,
2013-01-12 01:25:00,29.0,27.7,30.31,NNW,339,0.0,0.0,95,0.00,,,0.00,Wunderground v.1.15,2013-01-12 09:25:00,
2013-01-12 01:35:00,28.9,27.6,30.30,NNW,339,0.0,1.0,95,0.00,,,0.00,Wunderground v.1.15,2013-01-12 09:35:00,
2013-01-12 01:45:00,28.8,27.5,30.30,NNW,339,0.0,1.0,95,0.00,,,0.00,Wunderground v.1.15,2013-01-12 09:45:00,
2013-01-12 01:55:00,28.7,27.4,30.30,NNW,339,0.0,1.0,95,0.00,,,0.00,Wunderground v.1.15,2013-01-12 09:55:00,
2013-01-12 02:05:00,28.5,27.3,30.31,NNW,339,0.0,0.0,95,0.00,,,0.00,Wunderground v.1.15,2013-01-12 10:05:00,
2013-01-12 02:15:00,28.5,27.3,30.31,NNW,339,0.0,0.0,95,0.00,,,0.00,Wunderground v.1.15,2013-01-12 10:15:00,
2013-01-12 02:20:00,28.4,27.2,30.31,NNW,339,0.0,0.0,95,0.00,,,0.00,Wunderground v.1.15,2013-01-12 10:20:00,
2013-01-12 02:25:00,28.4,27.2,30.31,NNW,337,0.0,0.0,95,0.00,,,0.00,Wunderground v.1.15,2013-01-12 10:25:00,
2013-01-12 02:35:00,28.3,27.1,30.31,NNW,337,0.0,1.0,95,0.00,,,0.00,Wunderground v.1.15,2013-01-12 10:35:00,
2013-01-12 02:40:00,28.3,27.1,30.31,NNW,337,0.0,1.0,95,0.00,,,0.00,Wunderground v.1.15,2013-01-12 10:40:00,
2013-01-12 02:45:00,28.3,27.1,30.31,NNW,337,0.0,1.0,95,0.00,,,0.00,Wunderground v.1.15,2013-01-12 10:45:00,
2013-01-12 02:55:00,28.1,26.9,30.31,NNW,337,0.0,1.0,95,0.00,,,0.00,Wunderground v.1.15,2013-01-12 10:55:00,
2013-01-12 03:05:00,28.0,26.8,30.31,NNW,337,0.0,0.0,95,0.00,,,0.00,Wunderground v.1.15,2013-01-12 11:05:00,
2013-01-12 03:15:00,27.8,26.6,30.31,NNW,337,0.0,0.0,95,0.00,,,0.00,Wunderground v.1.15,2013-01-12 11:15:00,
2013-01-12 03:25:00,27.9,26.7,30.31,NW,310,0.0,0.0,95,0.00,,,0.00,Wunderground v.1.15,2013-01-12 11:25:00,
2013-01-12 03:35:00,27.8,26.6,30.31,NW,318,0.0,0.0,95,0.00,,,0.00,Wunderground v.1.15,2013-01-12 11:35:00,
2013-01-12 03:45:00,27.8,26.6,30.31,NW,315,0.0,0.0,95,0.00,,,0.00,Wunderground v.1.15,2013-01-12 11:45:00,
2013-01-12 03:55:00,27.8,26.6,30.31,NW,315,0.0,0.0,95,0.00,,,0.00,Wunderground v.1.15,2013-01-12 11:55:00,
2013-01-12 04:00:00,27.8,26.6,30.31,NW,314,0.0,0.0,95,0.00,,,0.00,Wunderground v.1.15,2013-01-12 12:00:00,
2013-01-12 04:10:00,27.9,26.7,30.31,NW,315,0.0,0.0,95,0.00,,,0.00,Wunderground v.1.15,2013-01-12 12:10:00,
2013-01-12 04:15:00,27.8,26.6,30.31,NW,314,0.0,0.0,95,0.00,,,0.00,Wunderground v.1.15,2013-01-12 12:15:00,
2013-01-12 04:25:00,27.7,26.5,30.31,NW,314,0.0,0.0,95,0.00,,,0.00,Wunderground v.1.15,2013-01-12 12:25:00,
2013-01-12 04:35:00,27.7,26.5,30.31,NW,317,0.0,2.0,95,0.00,,,0.00,Wunderground v.1.15,2013-01-12 12:35:00,
2013-01-12 04:45:00,27.6,26.4,30.31,NNW,342,0.0,2.0,95,0.00,,,0.00,Wunderground v.1.15,2013-01-12 12:45:00,
2013-01-12 04:55:00,27.6,26.1,30.32,NNW,338,0.0,2.0,94,0.00,,,0.00,Wunderground v.1.15,2013-01-12 12:55:00,
2013-01-12 05:05:00,27.6,26.1,30.31,NNW,335,0.0,0.0,94,0.00,,,0.00,Wunderground v.1.15,2013-01-12 13:05:00,
2013-01-12 05:15:00,27.7,26.2,30.31,NNW,333,0.0,0.0,94,0.00,,,0.00,Wunderground v.1.15,2013-01-12 13:15:00,
2013-01-12 05:25:00,27.8,26.6,30.32,NNW,331,0.0,0.0,95,0.00,,,0.00,Wunderground v.1.15,2013-01-12 13:25:00,
2013-01-12 05:35:00,27.8,26.3,30.31,NW,326,0.0,1.0,94,0.00,,,0.00,Wunderground v.1.15,2013-01-12 13:35:00,
2013-01-12 05:45:00,27.7,26.2,30.31,NNW,337,0.0,1.0,94,0.00,,,0.00,Wunderground v.1.15,2013-01-12 13:45:00,
2013-01-12 05:55:00,27.6,26.1,30.31,NW,306,0.0,1.0,94,0.00,,,0.00,Wunderground v.1.15,2013-01-12 13:55:00,
2013-01-12 06:05:00,27.6,26.1,30.31,NW,312,0.0,0.0,94,0.00,,,0.00,Wunderground v.1.15,2013-01-12 14:05:00,
2013-01-12 06:15:00,27.5,26.0,30.31,NW,316,0.0,0.0,94,0.00,,,0.00,Wunderground v.1.15,2013-01-12 14:15:00,
2013-01-12 06:25:00,27.5,26.0,30.32,NW,306,0.0,0.0,94,0.00,,,0.00,Wunderground v.1.15,2013-01-12 14:25:00,
2013-01-12 06:35:00,27.5,26.0,30.32,NW,306,0.0,1.0,94,0.00,,,0.00,Wunderground v.1.15,2013-01-12 14:35:00,
2013-01-12 06:40:00,27.5,26.0,30.32,NW,306,0.0,1.0,94,0.00,,,0.00,Wunderground v.1.15,2013-01-12 14:40:00,
2013-01-12 06:45:00,27.6,26.1,30.32,NW,306,0.0,1.0,94,0.00,,,0.00,Wunderground v.1.15,2013-01-12 14:45:00,
2013-01-12 06:55:00,27.6,26.1,30.32,NW,306,0.0,1.0,94,0.00,,,0.00,Wunderground v.1.15,2013-01-12 14:55:00,
2013-01-12 07:00:00,27.8,26.3,30.32,NW,306,0.0,0.0,94,0.00,,,0.00,Wunderground v.1.15,2013-01-12 15:00:00,
2013-01-12 07:05:00,27.8,26.3,30.32,NW,306,0.0,0.0,94,0.00,,,0.00,Wunderground v.1.15,2013-01-12 15:05:00,
2013-01-12 07:15:00,27.9,26.4,30.32,NW,306,0.0,0.0,94,0.00,,,0.00,Wunderground v.1.15,2013-01-12 15:15:00,
2013-01-12 07:25:00,28.0,26.5,30.33,NW,306,0.0,0.0,94,0.00,,,0.00,Wunderground v.1.15,2013-01-12 15:25:00,
2013-01-12 07:35:00,28.0,26.5,30.33,NW,306,0.0,1.0,94,0.00,,,0.00,Wunderground v.1.15,2013-01-12 15:35:00,
2013-01-12 07:45:00,28.0,26.2,30.34,NNW,334,0.0,1.0,93,0.00,,,0.00,Wunderground v.1.15,2013-01-12 15:45:00,
2013-01-12 07:55:00,28.0,26.2,30.34,NW,326,0.0,1.0,93,0.00,,,0.00,Wunderground v.1.15,2013-01-12 15:55:00,
2013-01-12 08:00:00,28.0,26.2,30.34,NW,326,0.0,0.0,93,0.00,,,0.00,Wunderground v.1.15,2013-01-12 16:00:00,
2013-01-12 08:05:00,28.0,26.2,30.34,NW,326,0.0,0.0,93,0.00,,,0.00,Wunderground v.1.15,2013-01-12 16:05:00,
2013-01-12 08:15:00,28.1,26.3,30.34,NW,307,0.0,0.0,93,0.00,,,0.00,Wunderground v.1.15,2013-01-12 16:15:00,
2013-01-12 08:20:00,28.0,26.2,30.35,NW,307,0.0,0.0,93,0.00,,,0.00,Wunderground v.1.15,2013-01-12 16:20:00,
2013-01-12 08:25:00,28.0,26.2,30.35,NW,307,0.0,0.0,93,0.00,,,0.00,Wunderground v.1.15,2013-01-12 16:25:00,
2013-01-12 08:35:00,28.1,26.3,30.35,NW,307,0.0,1.0,93,0.00,,,0.00,Wunderground v.1.15,2013-01-12 16:35:00,
2013-01-12 08:45:00,28.2,26.4,30.35,WNW,301,0.0,1.0,93,0.00,,,0.00,Wunderground v.1.15,2013-01-12 16:45:00,
2013-01-12 08:55:00,28.3,26.5,30.35,NNW,334,0.0,1.0,93,0.00,,,0.00,Wunderground v.1.15,2013-01-12 16:55:00,
2013-01-12 09:05:00,28.4,26.9,30.35,NNW,336,0.0,0.0,94,0.00,,,0.00,Wunderground v.1.15,2013-01-12 17:05:00,
2013-01-12 09:15:00,28.5,27.0,30.36,NNW,336,0.0,0.0,94,0.00,,,0.00,Wunderground v.1.15,2013-01-12 17:15:00,
2013-01-12 09:25:00,28.7,27.2,30.36,North,349,0.0,0.0,94,0.00,,,0.00,Wunderground v.1.15,2013-01-12 17:25:00,
2013-01-12 09:35:00,28.9,27.4,30.36,North,349,0.0,2.0,94,0.00,,,0.00,Wunderground v.1.15,2013-01-12 17:35:00,
2013-01-12 09:45:00,29.2,27.4,30.36,NNE,28,0.0,2.0,93,0.00,,,0.00,Wunderground v.1.15,2013-01-12 17:45:00,
2013-01-12 09:55:00,29.6,27.8,30.36,NNE,28,0.0,2.0,93,0.00,,,0.00,Wunderground v.1.15,2013-01-12 17:55:00,
2013-01-12 10:05:00,30.1,28.1,30.36,NNE,28,0.0,0.0,92,0.00,,,0.00,Wunderground v.1.15,2013-01-12 18:05:00,
2013-01-12 10:15:00,30.6,28.6,30.36,NNE,28,0.0,0.0,92,0.00,,,0.00,Wunderground v.1.15,2013-01-12 18:15:00,
2013-01-12 10:25:00,31.0,28.7,30.36,NNE,29,0.0,0.0,91,0.00,,,0.00,Wunderground v.1.15,2013-01-12 18:25:00,
2013-01-12 10:35:00,31.2,28.6,30.36,NNE,29,0.0,1.0,90,0.00,,,0.00,Wunderground v.1.15,2013-01-12 18:35:00,
2013-01-12 10:45:00,31.7,29.1,30.36,NNE,29,0.0,1.0,90,0.00,,,0.00,Wunderground v.1.15,2013-01-12 18:45:00,
2013-01-12 10:55:00,32.1,29.2,30.36,NNE,29,0.0,1.0,89,0.00,,,0.00,Wunderground v.1.15,2013-01-12 18:55:00,
2013-01-12 11:05:00,32.4,29.2,30.36,NNE,31,0.0,0.0,88,0.00,,,0.00,Wunderground v.1.15,2013-01-12 19:05:00,
2013-01-12 11:10:00,32.7,29.5,30.36,NNE,31,0.0,0.0,88,0.00,,,0.00,Wunderground v.1.15,2013-01-12 19:10:00,
2013-01-12 11:15:00,33.0,29.6,30.36,NNE,31,0.0,0.0,87,0.00,,,0.00,Wunderground v.1.15,2013-01-12 19:15:00,
2013-01-12 11:25:00,33.5,29.8,30.36,NE,40,0.0,0.0,86,0.00,,,0.00,Wunderground v.1.15,2013-01-12 19:25:00,
2013-01-12 11:35:00,33.9,29.6,30.36,North,354,0.0,1.0,84,0.00,,,0.00,Wunderground v.1.15,2013-01-12 19:35:00,
2013-01-12 11:45:00,34.5,29.9,30.36,NNE,27,0.0,1.0,83,0.00,,,0.00,Wunderground v.1.15,2013-01-12 19:45:00,
2013-01-12 11:55:00,34.6,29.7,30.36,NNE,19,0.0,1.0,82,0.00,,,0.00,Wunderground v.1.15,2013-01-12 19:55:00,
2013-01-12 12:05:00,35.0,29.1,30.36,NNW,335,0.0,0.0,79,0.00,,,0.00,Wunderground v.1.15,2013-01-12 20:05:00,
2013-01-12 12:15:00,35.2,28.7,30.35,NNW,347,0.0,0.0,77,0.00,,,0.00,Wunderground v.1.15,2013-01-12 20:15:00,
2013-01-12 12:20:00,35.2,28.7,30.35,North,4,0.0,0.0,77,0.00,,,0.00,Wunderground v.1.15,2013-01-12 20:20:00,
2013-01-12 12:30:00,35.2,28.7,30.35,NNE,25,0.0,0.0,77,0.00,,,0.00,Wunderground v.1.15,2013-01-12 20:30:00,
2013-01-12 12:35:00,35.3,28.8,30.35,NE,43,0.0,3.0,77,0.00,,,0.00,Wunderground v.1.15,2013-01-12 20:35:00,
2013-01-12 12:45:00,35.5,28.4,30.35,South,191,0.0,3.0,75,0.00,,,0.00,Wunderground v.1.15,2013-01-12 20:45:00,
2013-01-12 12:50:00,35.7,28.2,30.35,NNE,22,0.0,3.0,74,0.00,,,0.00,Wunderground v.1.15,2013-01-12 20:50:00,
2013-01-12 12:55:00,35.6,28.5,30.35,North,9,0.0,3.0,75,0.00,,,0.00,Wunderground v.1.15,2013-01-12 20:55:00,
2013-01-12 13:05:00,36.2,27.4,30.35,NW,304,1.0,1.0,70,0.00,,,0.00,Wunderground v.1.15,2013-01-12 21:05:00,
2013-01-12 13:15:00,36.3,27.4,30.35,North,352,0.0,1.0,70,0.00,,,0.00,Wunderground v.1.15,2013-01-12 21:15:00,
2013-01-12 13:25:00,36.4,26.1,30.36,WNW,302,3.0,7.0,66,0.00,,,0.00,Wunderground v.1.15,2013-01-12 21:25:00,
2013-01-12 13:30:00,36.2,26.3,30.36,North,5,3.0,3.0,67,0.00,,,0.00,Wunderground v.1.15,2013-01-12 21:30:00,
2013-01-12 13:35:00,36.1,26.6,30.36,NW,312,1.0,6.0,68,0.00,,,0.00,Wunderground v.1.15,2013-01-12 21:35:00,
2013-01-12 13:45:00,36.1,26.6,30.36,NNE,25,1.0,4.0,68,0.00,,,0.00,Wunderground v.1.15,2013-01-12 21:45:00,
2013-01-12 13:55:00,35.9,26.4,30.36,WNW,292,1.0,2.0,68,0.00,,,0.00,Wunderground v.1.15,2013-01-12 21:55:00,
2013-01-12 14:05:00,35.7,26.5,30.36,NW,305,1.0,3.0,69,0.00,,,0.00,Wunderground v.1.15,2013-01-12 22:05:00,
2013-01-12 14:15:00,35.6,26.8,30.36,North,356,2.0,2.0,70,0.00,,,0.00,Wunderground v.1.15,2013-01-12 22:15:00,
2013-01-12 14:25:00,35.7,26.9,30.36,NNW,346,1.0,2.0,70,0.00,,,0.00,Wunderground v.1.15,2013-01-12 22:25:00,
2013-01-12 14:30:00,35.5,26.7,30.36,North,354,1.0,1.0,70,0.00,,,0.00,Wunderground v.1.15,2013-01-12 22:30:00,
2013-01-12 14:35:00,35.5,26.7,30.36,North,1,1.0,10.0,70,0.00,,,0.00,Wunderground v.1.15,2013-01-12 22:35:00,
2013-01-12 14:45:00,35.5,27.0,30.37,North,6,1.0,10.0,71,0.00,,,0.00,Wunderground v.1.15,2013-01-12 22:45:00,
2013-01-12 14:55:00,35.6,27.1,30.37,NNW,337,2.0,2.0,71,0.00,,,0.00,Wunderground v.1.15,2013-01-12 22:55:00,
2013-01-12 15:05:00,35.5,27.0,30.37,NE,40,1.0,2.0,71,0.00,,,0.00,Wunderground v.1.15,2013-01-12 23:05:00,
2013-01-12 15:15:00,35.3,26.8,30.37,North,8,0.0,1.0,71,0.00,,,0.00,Wunderground v.1.15,2013-01-12 23:15:00,
2013-01-12 15:25:00,35.1,26.6,30.37,NNW,347,1.0,1.0,71,0.00,,,0.00,Wunderground v.1.15,2013-01-12 23:25:00,
2013-01-12 15:35:00,34.9,26.8,30.37,North,353,0.0,10.0,72,0.00,,,0.00,Wunderground v.1.15,2013-01-12 23:35:00,
2013-01-12 15:45:00,34.7,26.9,30.37,North,3,0.0,10.0,73,0.00,,,0.00,Wunderground v.1.15,2013-01-12 23:45:00,
2013-01-12 15:55:00,34.6,26.8,30.37,NW,320,0.0,10.0,73,0.00,,,0.00,Wunderground v.1.15,2013-01-12 23:55:00,
2013-01-12 16:05:00,34.4,26.6,30.36,NNW,344,0.0,0.0,73,0.00,,,0.00,Wunderground v.1.15,2013-01-13 00:05:00,
2013-01-12 16:10:00,34.2,26.8,30.36,NNW,344,0.0,0.0,74,0.00,,,0.00,Wunderground v.1.15,2013-01-13 00:10:00,
2013-01-12 16:15:00,34.1,26.7,30.36,NNW,344,0.0,0.0,74,0.00,,,0.00,Wunderground v.1.15,2013-01-13 00:15:00,
2013-01-12 16:25:00,33.8,26.4,30.37,NNW,344,0.0,0.0,74,0.00,,,0.00,Wunderground v.1.15,2013-01-13 00:25:00,
2013-01-12 16:30:00,33.8,26.4,30.37,North,3,0.0,0.0,74,0.00,,,0.00,Wunderground v.1.15,2013-01-13 00:30:00,
2013-01-12 16:35:00,33.7,26.3,30.37,North,3,0.0,8.0,74,0.00,,,0.00,Wunderground v.1.15,2013-01-13 00:35:00,
2013-01-12 16:45:00,33.6,25.9,30.37,North,3,0.0,8.0,73,0.00,,,0.00,Wunderground v.1.15,2013-01-13 00:45:00,
2013-01-12 16:55:00,33.4,26.0,30.37,North,3,0.0,8.0,74,0.00,,,0.00,Wunderground v.1.15,2013-01-13 00:55:00,
2013-01-12 17:05:00,33.4,25.7,30.37,North,4,0.0,0.0,73,0.00,,,0.00,Wunderground v.1.15,2013-01-13 01:05:00,
2013-01-12 17:15:00,33.4,25.7,30.37,North,4,0.0,0.0,73,0.00,,,0.00,Wunderground v.1.15,2013-01-13 01:15:00,
2013-01-12 17:25:00,33.3,25.6,30.37,North,4,0.0,0.0,73,0.00,,,0.00,Wunderground v.1.15,2013-01-13 01:25:00,
2013-01-12 17:30:00,33.3,25.6,30.37,North,4,0.0,0.0,73,0.00,,,0.00,Wunderground v.1.15,2013-01-13 01:30:00,
2013-01-12 17:35:00,33.3,25.6,30.37,North,4,0.0,1.0,73,0.00,,,0.00,Wunderground v.1.15,2013-01-13 01:35:00,
2013-01-12 17:45:00,33.3,25.9,30.37,NNE,15,0.0,1.0,74,0.00,,,0.00,Wunderground v.1.15,2013-01-13 01:45:00,
2013-01-12 17:55:00,33.2,25.8,30.37,NNE,15,0.0,1.0,74,0.00,,,0.00,Wunderground v.1.15,2013-01-13 01:55:00,
2013-01-12 18:05:00,33.2,25.8,30.38,North,10,0.0,0.0,74,0.00,,,0.00,Wunderground v.1.15,2013-01-13 02:05:00,
2013-01-12 18:15:00,33.0,25.6,30.37,North,10,0.0,0.0,74,0.00,,,0.00,Wunderground v.1.15,2013-01-13 02:15:00,
2013-01-12 18:25:00,32.8,25.7,30.38,North,10,0.0,0.0,75,0.00,,,0.00,Wunderground v.1.15,2013-01-13 02:25:00,
2013-01-12 18:35:00,32.6,25.9,30.38,NNW,332,0.0,0.0,76,0.00,,,0.00,Wunderground v.1.15,2013-01-13 02:35:00,
2013-01-12 18:45:00,32.5,25.8,30.38,NW,310,0.0,0.0,76,0.00,,,0.00,Wunderground v.1.15,2013-01-13 02:45:00,
2013-01-12 18:55:00,32.4,25.7,30.38,NW,306,0.0,0.0,76,0.00,,,0.00,Wunderground v.1.15,2013-01-13 02:55:00,
2013-01-12 19:00:00,32.4,25.7,30.38,NNW,332,0.0,0.0,76,0.00,,,0.00,Wunderground v.1.15,2013-01-13 03:00:00,
2013-01-12 19:05:00,32.2,25.8,30.38,NW,312,0.0,1.0,77,0.00,,,0.00,Wunderground v.1.15,2013-01-13 03:05:00,
2013-01-12 19:15:00,32.2,25.8,30.39,NW,305,0.0,1.0,77,0.00,,,0.00,Wunderground v.1.15,2013-01-13 03:15:00,
2013-01-12 19:25:00,32.1,26.0,30.38,NW,305,0.0,0.0,78,0.00,,,0.00,Wunderground v.1.15,2013-01-13 03:25:00,
2013-01-12 19:35:00,31.9,25.8,30.38,NW,305,0.0,0.0,78,0.00,,,0.00,Wunderground v.1.15,2013-01-13 03:35:00,
2013-01-12 19:45:00,31.6,25.8,30.39,NW,305,0.0,0.0,79,0.00,,,0.00,Wunderground v.1.15,2013-01-13 03:45:00,
2013-01-12 19:55:00,31.5,25.7,30.39,NW,305,0.0,0.0,79,0.00,,,0.00,Wunderground v.1.15,2013-01-13 03:55:00,
2013-01-12 20:05:00,31.5,26.0,30.39,NW,305,0.0,0.0,80,0.00,,,0.00,Wunderground v.1.15,2013-01-13 04:05:00,
2013-01-12 20:15:00,31.3,25.8,30.38,NW,305,0.0,0.0,80,0.00,,,0.00,Wunderground v.1.15,2013-01-13 04:15:00,
2013-01-12 20:25:00,31.1,26.0,30.38,NW,305,0.0,0.0,81,0.00,,,0.00,Wunderground v.1.15,2013-01-13 04:25:00,
2013-01-12 20:30:00,31.0,25.9,30.38,NW,305,0.0,0.0,81,0.00,,,0.00,Wunderground v.1.15,2013-01-13 04:30:00,
2013-01-12 20:35:00,31.0,25.9,30.39,NW,305,0.0,2.0,81,0.00,,,0.00,Wunderground v.1.15,2013-01-13 04:35:00,
2013-01-12 20:45:00,30.8,25.7,30.39,NW,305,0.0,2.0,81,0.00,,,0.00,Wunderground v.1.15,2013-01-13 04:45:00,
2013-01-12 20:55:00,30.7,25.6,30.38,NW,305,0.0,2.0,81,0.00,,,0.00,Wunderground v.1.15,2013-01-13 04:55:00,
2013-01-12 21:05:00,30.5,25.7,30.38,NW,305,0.0,0.0,82,0.00,,,0.00,Wunderground v.1.15,2013-01-13 05:05:00,
2013-01-12 21:10:00,30.3,25.5,30.38,NW,305,0.0,0.0,82,0.00,,,0.00,Wunderground v.1.15,2013-01-13 05:10:00,
2013-01-12 21:15:00,30.1,25.6,30.38,NW,305,0.0,0.0,83,0.00,,,0.00,Wunderground v.1.15,2013-01-13 05:15:00,
2013-01-12 21:20:00,30.0,25.5,30.38,NW,305,0.0,0.0,83,0.00,,,0.00,Wunderground v.1.15,2013-01-13 05:20:00,
2013-01-12 21:25:00,29.9,25.4,30.38,NW,305,0.0,0.0,83,0.00,,,0.00,Wunderground v.1.15,2013-01-13 05:25:00,
2013-01-12 21:35:00,29.9,25.7,30.38,NW,305,0.0,0.0,84,0.00,,,0.00,Wunderground v.1.15,2013-01-13 05:35:00,
2013-01-12 21:45:00,30.1,25.8,30.39,NW,305,0.0,0.0,84,0.00,,,0.00,Wunderground v.1.15,2013-01-13 05:45:00,
2013-01-12 21:55:00,30.2,25.9,30.39,NW,305,0.0,0.0,84,0.00,,,0.00,Wunderground v.1.15,2013-01-13 05:55:00,
2013-01-12 22:05:00,30.4,25.6,30.40,WNW,303,0.0,0.0,82,0.00,,,0.00,Wunderground v.1.15,2013-01-13 06:05:00,
2013-01-12 22:15:00,30.5,25.4,30.40,WNW,303,0.0,0.0,81,0.00,,,0.00,Wunderground v.1.15,2013-01-13 06:15:00,
2013-01-12 22:25:00,30.3,24.9,30.40,WNW,303,0.0,0.0,80,0.00,,,0.00,Wunderground v.1.15,2013-01-13 06:25:00,
2013-01-12 22:35:00,30.1,25.0,30.40,WNW,303,0.0,0.0,81,0.00,,,0.00,Wunderground v.1.15,2013-01-13 06:35:00,
2013-01-12 22:45:00,30.0,25.2,30.40,WNW,303,0.0,0.0,82,0.00,,,0.00,Wunderground v.1.15,2013-01-13 06:45:00,
2013-01-12 22:55:00,30.0,25.2,30.40,WNW,303,0.0,0.0,82,0.00,,,0.00,Wunderground v.1.15,2013-01-13 06:55:00,
2013-01-12 23:00:00,30.0,25.2,30.40,WNW,303,0.0,0.0,82,0.00,,,0.00,Wunderground v.1.15,2013-01-13 07:00:00,
2013-01-12 23:05:00,30.0,25.5,30.41,NW,306,0.0,0.0,83,0.00,,,0.00,Wunderground v.1.15,2013-01-13 07:05:00,
2013-01-12 23:15:00,29.9,25.7,30.42,NW,305,0.0,0.0,84,0.00,,,0.00,Wunderground v.1.15,2013-01-13 07:15:00,
2013-01-12 23:25:00,29.8,25.6,30.41,NW,305,0.0,0.0,84,0.00,,,0.00,Wunderground v.1.15,2013-01-13 07:25:00,
2013-01-12 23:35:00,29.7,25.7,30.41,NW,313,0.0,1.0,85,0.00,,,0.00,Wunderground v.1.15,2013-01-13 07:35:00,
2013-01-12 23:45:00,29.6,25.9,30.42,NW,320,0.0,1.0,86,0.00,,,0.00,Wunderground v.1.15,2013-01-13 07:45:00,
2013-01-12 23:50:00,29.6,25.9,30.42,NW,308,0.0,1.0,86,0.00,,,0.00,Wunderground v.1.15,2013-01-13 07:50:00,
2013-01-12 23:55:00,29.6,25.9,30.42,NW,306,0.0,1.0,86,0.00,,,0.00,Wunderground v.1.15,2013-01-13 07:55:00,